Dawson, West Virginia
Current Conditions -  °F | °C
As of 3:15 AM on Sunday 21 Dec 2014 (Local Time) from KLWB Reporting Station
Overcast Overcast  
Wind Chill: 35°   Ceiling: 3400
Heat Index: 35°   Visibility: 10mi
Dew Point: 29°   Wind: 3mph
Humidity: 81%   Direction: 220°SW
Pressure: 30.2"   Gusts: NA
Location:  37.7578°N, 80.7095°W
Report Text: KLWB 210815Z AUTO 22003KT 10SM OVC034 02/M01 A3020 RMK AO2 T00151014
Loading
Personal Weather Stations






























Interactive Weather Map New forecast layout! Learn more

10-Day Weather Forecast

Advertisements
Track Severe Weather on mobile